Time;durP1;ratioP1;P1;durP2;ratioP2;P2;SDS_P1;SDS_P2;PMS_P1;PMS_P2;Temp;Humidity;BMP_temperature;BMP_pressure;BME280_temperature;BME280_humidity;BME280_pressure;Samples;Min_cycle;Max_cycle;Signal;HPM_P1;HPM_P2
2023/03/27 00:00:26;;;;;;;;;;;15.20;99.90;;;;;;5013129;28;19924;-67
2023/03/27 00:02:52;;;;;;;;;;;15.20;99.90;;;;;;5013877;28;19910;-67
2023/03/27 00:05:19;;;;;;;;;;;15.20;99.90;;;;;;5013347;28;19906;-68
2023/03/27 00:07:47;;;;;;;;;;;15.20;99.90;;;;;;5013762;28;19905;-68
2023/03/27 00:10:13;;;;;;;;;;;15.20;99.90;;;;;;4995537;28;19992;-68
2023/03/27 00:12:39;;;;;;;;;;;15.20;99.90;;;;;;5013277;28;20264;-68
2023/03/27 00:15:06;;;;;;;;;;;15.20;99.90;;;;;;5013067;28;19912;-68
2023/03/27 00:17:33;;;;;;;;;;;15.30;99.90;;;;;;5013181;28;19905;-68
2023/03/27 00:19:59;;;;;;;;;;;15.30;99.90;;;;;;5013099;28;19925;-67
2023/03/27 00:22:28;;;;;;;;;;;15.20;99.90;;;;;;5013077;28;19913;-68
2023/03/27 00:24:56;;;;;;;;;;;15.10;99.90;;;;;;5013510;28;19909;-70
2023/03/27 00:27:23;;;;;;;;;;;15.10;99.90;;;;;;5013265;28;20018;-68
2023/03/27 00:29:49;;;;;;;;;;;15.10;99.90;;;;;;5004101;28;19948;-67
2023/03/27 00:32:16;;;;;;;;;;;15.00;99.90;;;;;;4993758;28;19957;-68
2023/03/27 00:34:43;;;;;;;;;;;15.00;99.90;;;;;;4992747;28;19905;-67
2023/03/27 00:37:11;;;;;;;;;;;15.00;99.90;;;;;;4993263;28;19917;-68
2023/03/27 00:39:39;;;;;;;;;;;15.00;99.90;;;;;;4993087;28;20056;-67
2023/03/27 00:42:07;;;;;;;;;;;14.90;99.90;;;;;;4993068;28;19906;-66
2023/03/27 00:44:38;;;;;;;;;;;15.00;99.90;;;;;;4993387;28;19997;-67
2023/03/27 00:47:09;;;;;;;;;;;15.00;99.90;;;;;;4975245;28;19905;-68
2023/03/27 00:49:36;;;;;;;;;;;15.00;99.90;;;;;;4993176;28;20384;-67
2023/03/27 00:52:05;;;;;;;;;;;15.10;99.90;;;;;;4992990;28;19984;-68
2023/03/27 00:54:35;;;;;;;;;;;15.00;99.90;;;;;;4993333;28;19916;-68
2023/03/27 00:57:04;;;;;;;;;;;15.00;99.90;;;;;;4975356;28;20366;-65
2023/03/27 00:59:33;;;;;;;;;;;15.00;99.90;;;;;;4998525;28;19933;-66
2023/03/27 01:02:01;;;;;;;;;;;14.90;99.90;;;;;;5012267;28;19917;-65
2023/03/27 01:04:26;;;;;;;;;;;15.00;99.90;;;;;;5012050;28;19906;-67
2023/03/27 01:06:53;;;;;;;;;;;15.00;99.90;;;;;;5011809;28;19936;-67
2023/03/27 01:09:19;;;;;;;;;;;15.00;99.90;;;;;;5012112;28;19913;-65
2023/03/27 01:11:51;;;;;;;;;;;14.90;99.90;;;;;;5011721;28;19905;-67
2023/03/27 01:14:35;;;;;;;;;;;14.90;99.90;;;;;;5011819;28;19906;-67
2023/03/27 01:17:01;;;;;;;;;;;14.80;99.90;;;;;;5011552;28;19906;-67
2023/03/27 01:19:40;;;;;;;;;;;14.80;99.90;;;;;;5011633;28;19914;-67
2023/03/27 01:22:16;;;;;;;;;;;14.80;99.90;;;;;;5011629;28;19906;-67
2023/03/27 01:25:09;;;;;;;;;;;14.70;99.90;;;;;;4997655;28;19972;-68
2023/03/27 01:27:44;;;;;;;;;;;14.80;99.90;;;;;;4974507;28;19905;-68
2023/03/27 01:30:16;;;;;;;;;;;14.80;99.90;;;;;;5003503;28;19909;-68
2023/03/27 01:33:01;;;;;;;;;;;14.80;99.90;;;;;;5011632;28;19912;-68
2023/03/27 01:35:35;;;;;;;;;;;14.80;99.90;;;;;;5012109;28;19951;-69
2023/03/27 01:38:15;;;;;;;;;;;14.80;99.90;;;;;;5011688;28;20306;-68
2023/03/27 01:40:49;;;;;;;;;;;14.80;99.90;;;;;;5011919;28;19912;-68
2023/03/27 01:43:29;;;;;;;;;;;14.90;99.90;;;;;;5011852;28;19906;-68
2023/03/27 01:46:14;;;;;;;;;;;14.90;99.90;;;;;;5011529;28;19905;-67
2023/03/27 01:48:47;;;;;;;;;;;14.80;99.90;;;;;;5015789;28;19909;-67
2023/03/27 01:51:24;;;;;;;;;;;14.90;99.90;;;;;;5015186;28;19905;-67
2023/03/27 01:53:54;;;;;;;;;;;14.90;99.90;;;;;;5015778;28;19957;-68
2023/03/27 01:56:31;;;;;;;;;;;14.90;99.90;;;;;;5015324;28;19909;-66
2023/03/27 01:59:03;;;;;;;;;;;14.90;99.90;;;;;;5015410;28;19913;-67
2023/03/27 02:01:38;;;;;;;;;;;15.00;99.90;;;;;;5014881;28;19917;-68
2023/03/27 02:04:07;;;;;;;;;;;15.00;99.90;;;;;;5015334;28;19975;-70
2023/03/27 02:06:35;;;;;;;;;;;15.00;99.90;;;;;;5015090;28;20060;-68
2023/03/27 02:09:02;;;;;;;;;;;15.10;99.90;;;;;;5015183;28;19913;-68
2023/03/27 02:11:32;;;;;;;;;;;15.10;99.90;;;;;;5014877;28;19906;-67
2023/03/27 02:14:03;;;;;;;;;;;15.20;99.90;;;;;;5015040;28;19921;-68
2023/03/27 02:16:34;;;;;;;;;;;15.20;99.90;;;;;;5014859;28;19912;-69
2023/03/27 02:19:02;;;;;;;;;;;15.10;99.90;;;;;;5014715;28;19953;-68
2023/03/27 02:21:30;;;;;;;;;;;15.20;99.90;;;;;;5014593;28;19906;-68
2023/03/27 02:24:00;;;;;;;;;;;15.20;99.90;;;;;;5014637;28;20285;-67
2023/03/27 02:26:27;;;;;;;;;;;15.20;99.90;;;;;;5014941;28;20273;-69
2023/03/27 02:29:01;;;;;;;;;;;15.20;99.90;;;;;;5014660;28;19905;-68
2023/03/27 02:31:45;;;;;;;;;;;15.20;99.90;;;;;;5014493;28;19946;-69
2023/03/27 02:34:27;;;;;;;;;;;15.20;99.90;;;;;;5014391;28;19905;-68
2023/03/27 02:37:02;;;;;;;;;;;15.30;99.90;;;;;;5014133;28;19928;-69
2023/03/27 02:39:47;;;;;;;;;;;15.30;99.90;;;;;;5014333;28;19949;-68
2023/03/27 02:42:20;;;;;;;;;;;15.20;99.90;;;;;;4996523;28;19965;-68
2023/03/27 02:44:50;;;;;;;;;;;15.20;99.90;;;;;;5014340;28;19925;-69
2023/03/27 02:47:21;;;;;;;;;;;15.20;99.90;;;;;;5014229;28;20022;-68
2023/03/27 02:49:51;;;;;;;;;;;15.30;99.90;;;;;;5013843;28;19909;-67
2023/03/27 02:52:28;;;;;;;;;;;15.30;99.90;;;;;;5013938;28;19944;-66
2023/03/27 02:55:17;;;;;;;;;;;15.20;99.90;;;;;;5014509;28;19915;-67
2023/03/27 02:57:45;;;;;;;;;;;15.20;99.90;;;;;;5003154;28;19909;-67
2023/03/27 03:00:17;;;;;;;;;;;15.20;99.90;;;;;;4994868;28;19924;-67
2023/03/27 03:02:44;;;;;;;;;;;15.20;99.90;;;;;;5013655;28;19973;-67
2023/03/27 03:05:13;;;;;;;;;;;15.20;99.90;;;;;;5013665;28;20372;-67
2023/03/27 03:07:39;;;;;;;;;;;15.10;99.90;;;;;;5013717;28;20392;-67
2023/03/27 03:10:10;;;;;;;;;;;15.10;99.90;;;;;;5028962;28;19909;-68
2023/03/27 03:12:37;;;;;;;;;;;15.10;99.90;;;;;;5026297;28;19909;-68
2023/03/27 03:15:03;;;;;;;;;;;15.00;99.90;;;;;;5033606;28;19905;-67
2023/03/27 03:17:29;;;;;;;;;;;15.10;99.90;;;;;;5014280;28;19905;-68
2023/03/27 03:20:02;;;;;;;;;;;15.10;99.90;;;;;;5032583;28;19932;-68
2023/03/27 03:22:27;;;;;;;;;;;15.10;99.90;;;;;;5015508;28;20311;-66
2023/03/27 03:24:55;;;;;;;;;;;15.00;99.90;;;;;;5033541;28;19992;-67
2023/03/27 03:27:22;;;;;;;;;;;15.00;99.90;;;;;;5033685;28;19905;-68
2023/03/27 03:29:48;;;;;;;;;;;15.00;99.90;;;;;;5025100;28;19905;-67
2023/03/27 03:32:15;;;;;;;;;;;14.90;99.90;;;;;;5014001;28;20081;-67
2023/03/27 03:34:45;;;;;;;;;;;15.00;99.90;;;;;;5014074;28;19909;-67
2023/03/27 03:37:11;;;;;;;;;;;15.00;99.90;;;;;;4997109;28;19926;-67
2023/03/27 03:39:37;;;;;;;;;;;15.00;99.90;;;;;;5014352;28;19917;-68
2023/03/27 03:42:03;;;;;;;;;;;15.10;99.90;;;;;;5013848;28;19968;-66
2023/03/27 03:44:29;;;;;;;;;;;15.10;99.90;;;;;;5013836;28;19906;-68
2023/03/27 03:46:55;;;;;;;;;;;15.10;99.90;;;;;;5031953;28;19905;-67
2023/03/27 03:49:21;;;;;;;;;;;15.00;99.90;;;;;;5033508;28;19905;-68
2023/03/27 03:51:46;;;;;;;;;;;15.00;99.90;;;;;;5033974;28;19913;-67
2023/03/27 03:54:12;;;;;;;;;;;15.00;99.90;;;;;;5031430;28;19916;-67
2023/03/27 03:56:40;;;;;;;;;;;14.90;99.90;;;;;;5031359;28;19912;-67
2023/03/27 03:59:08;;;;;;;;;;;14.80;99.90;;;;;;5030939;28;19918;-67
2023/03/27 04:01:34;;;;;;;;;;;14.80;99.90;;;;;;5013220;28;19932;-67
2023/03/27 04:04:01;;;;;;;;;;;14.80;99.90;;;;;;5013898;28;19995;-68
2023/03/27 04:06:29;;;;;;;;;;;14.80;99.90;;;;;;5019154;28;20357;-64
2023/03/27 04:08:56;;;;;;;;;;;14.70;99.90;;;;;;5011250;28;19987;-67
2023/03/27 04:11:22;;;;;;;;;;;14.70;99.90;;;;;;5024627;28;19920;-67
2023/03/27 04:13:48;;;;;;;;;;;14.70;99.90;;;;;;5018007;28;19905;-66
2023/03/27 04:16:14;;;;;;;;;;;14.60;99.90;;;;;;5013960;28;19941;-68
2023/03/27 04:18:41;;;;;;;;;;;14.60;99.90;;;;;;5014268;28;19963;-63
2023/03/27 04:21:17;;;;;;;;;;;14.70;99.90;;;;;;5000134;28;19975;-65
2023/03/27 04:23:46;;;;;;;;;;;14.50;99.90;;;;;;5025306;28;19979;-67
2023/03/27 04:26:14;;;;;;;;;;;14.50;99.90;;;;;;5026055;28;19932;-67
2023/03/27 04:28:41;;;;;;;;;;;14.50;99.90;;;;;;5027835;28;20372;-67
2023/03/27 04:31:09;;;;;;;;;;;14.40;99.90;;;;;;5022378;28;19905;-68
2023/03/27 04:33:45;;;;;;;;;;;14.40;99.90;;;;;;5015937;28;19905;-68
2023/03/27 04:36:13;;;;;;;;;;;14.40;99.90;;;;;;5015968;28;19955;-68
2023/03/27 04:38:39;;;;;;;;;;;14.30;99.90;;;;;;5033502;28;19962;-68
2023/03/27 04:41:06;;;;;;;;;;;14.30;99.90;;;;;;5033672;28;19912;-67
2023/03/27 04:43:35;;;;;;;;;;;14.20;99.90;;;;;;5015859;28;19909;-67
2023/03/27 04:46:02;;;;;;;;;;;14.20;99.90;;;;;;5033437;28;19964;-68
2023/03/27 04:48:28;;;;;;;;;;;14.10;99.90;;;;;;5033380;28;19905;-68
2023/03/27 04:50:54;;;;;;;;;;;14.10;99.90;;;;;;5033591;28;20411;-68
2023/03/27 04:53:22;;;;;;;;;;;14.10;99.90;;;;;;5032620;28;20020;-68
2023/03/27 04:55:49;;;;;;;;;;;14.10;99.90;;;;;;5032395;28;19912;-68
2023/03/27 04:58:16;;;;;;;;;;;14.10;99.90;;;;;;5033234;28;19983;-68
2023/03/27 05:00:49;;;;;;;;;;;14.10;99.90;;;;;;5016500;28;19996;-68
2023/03/27 05:03:31;;;;;;;;;;;14.10;99.90;;;;;;5011671;28;19913;-67
2023/03/27 05:05:57;;;;;;;;;;;14.10;99.90;;;;;;5013715;28;20380;-68
2023/03/27 05:08:22;;;;;;;;;;;14.10;99.90;;;;;;5013402;28;19906;-68
2023/03/27 05:10:48;;;;;;;;;;;14.10;99.90;;;;;;5013340;28;19905;-67
2023/03/27 05:13:14;;;;;;;;;;;14.10;99.90;;;;;;5013423;28;19976;-68
2023/03/27 05:15:40;;;;;;;;;;;14.10;99.90;;;;;;5013696;28;19909;-66
2023/03/27 05:18:07;;;;;;;;;;;14.10;99.90;;;;;;5013318;28;19968;-68
2023/03/27 05:20:34;;;;;;;;;;;14.10;99.90;;;;;;5013581;28;20335;-68
2023/03/27 05:23:03;;;;;;;;;;;14.00;99.90;;;;;;5012655;28;20003;-67
2023/03/27 05:25:30;;;;;;;;;;;14.00;99.90;;;;;;5013024;28;19909;-67
2023/03/27 05:27:55;;;;;;;;;;;14.10;99.90;;;;;;5013105;28;19906;-69
2023/03/27 05:30:25;;;;;;;;;;;14.30;99.90;;;;;;5012950;28;19960;-67
2023/03/27 05:32:51;;;;;;;;;;;14.30;99.90;;;;;;4994993;28;19909;-68
2023/03/27 05:35:19;;;;;;;;;;;14.30;99.90;;;;;;5012464;28;20411;-68
2023/03/27 05:37:46;;;;;;;;;;;14.40;99.90;;;;;;5013164;28;19905;-68
2023/03/27 05:40:14;;;;;;;;;;;14.60;99.90;;;;;;4995473;28;19910;-69
2023/03/27 05:42:44;;;;;;;;;;;14.60;99.90;;;;;;5013000;28;20005;-69
2023/03/27 05:45:10;;;;;;;;;;;14.60;99.90;;;;;;5012275;28;19933;-70
2023/03/27 05:47:50;;;;;;;;;;;14.60;99.90;;;;;;5012459;28;19905;-70
2023/03/27 05:50:18;;;;;;;;;;;14.70;99.90;;;;;;5012561;28;20404;-70
2023/03/27 05:52:44;;;;;;;;;;;15.40;99.90;;;;;;4994050;28;19905;-71
2023/03/27 05:55:11;;;;;;;;;;;16.80;99.90;;;;;;4994150;28;20230;-70
2023/03/27 05:57:38;;;;;;;;;;;18.10;99.90;;;;;;4977626;28;19964;-70
2023/03/27 06:00:15;;;;;;;;;;;19.70;99.90;;;;;;5011453;28;20262;-70
2023/03/27 06:02:45;;;;;;;;;;;21.00;99.90;;;;;;5012004;28;20302;-69
2023/03/27 06:05:14;;;;;;;;;;;21.70;99.90;;;;;;4993918;28;19913;-68
2023/03/27 06:07:42;;;;;;;;;;;23.20;99.90;;;;;;5011840;28;19933;-69
2023/03/27 06:10:09;;;;;;;;;;;23.80;99.90;;;;;;5012121;28;20347;-71
2023/03/27 06:12:36;;;;;;;;;;;23.50;99.90;;;;;;5011432;28;19921;-69
2023/03/27 06:15:06;;;;;;;;;;;24.80;99.90;;;;;;5012079;28;19906;-70
2023/03/27 06:17:36;;;;;;;;;;;25.30;99.90;;;;;;5011644;28;20361;-70
2023/03/27 06:20:10;;;;;;;;;;;26.10;99.90;;;;;;5012436;28;20483;-71
2023/03/27 06:22:46;;;;;;;;;;;26.20;99.90;;;;;;5013100;28;19917;-71
2023/03/27 06:25:12;;;;;;;;;;;26.10;99.90;;;;;;5012005;28;20372;-70
2023/03/27 06:27:40;;;;;;;;;;;26.30;99.90;;;;;;5012151;28;19905;-72
2023/03/27 06:30:07;;;;;;;;;;;27.30;99.90;;;;;;5012432;28;19951;-72
2023/03/27 06:32:35;;;;;;;;;;;26.80;99.90;;;;;;5011729;28;20025;-71
2023/03/27 06:35:01;;;;;;;;;;;27.00;99.90;;;;;;4997210;28;19913;-71
2023/03/27 06:37:32;;;;;;;;;;;28.10;99.90;;;;;;5015042;28;19905;-69
2023/03/27 06:39:59;;;;;;;;;;;28.30;99.90;;;;;;5015350;28;20348;-71
2023/03/27 06:42:25;;;;;;;;;;;29.20;99.90;;;;;;5016042;28;19920;-69
2023/03/27 06:44:51;;;;;;;;;;;29.50;99.90;;;;;;5015248;28;19913;-70
2023/03/27 06:47:18;;;;;;;;;;;29.60;99.90;;;;;;5015070;28;20320;-71
2023/03/27 06:49:46;;;;;;;;;;;30.70;99.90;;;;;;5015039;28;19964;-71
2023/03/27 06:52:13;;;;;;;;;;;30.70;99.90;;;;;;5015079;28;19913;-71
2023/03/27 06:54:39;;;;;;;;;;;30.80;99.90;;;;;;5014782;28;19909;-70
2023/03/27 06:57:05;;;;;;;;;;;29.90;99.90;;;;;;5013959;28;20333;-70
2023/03/27 06:59:31;;;;;;;;;;;29.10;99.90;;;;;;5014195;28;19921;-71
2023/03/27 07:01:57;;;;;;;;;;;28.50;99.90;;;;;;5014807;28;19920;-66
2023/03/27 07:04:22;;;;;;;;;;;28.10;99.90;;;;;;5014909;28;19905;-70
2023/03/27 07:06:49;;;;;;;;;;;28.70;99.90;;;;;;5015077;28;19905;-72
2023/03/27 07:09:16;;;;;;;;;;;30.30;99.90;;;;;;5014632;28;19932;-70
2023/03/27 07:11:42;;;;;;;;;;;31.20;99.90;;;;;;5014901;28;19906;-70
2023/03/27 07:14:08;;;;;;;;;;;31.90;99.90;;;;;;4996945;28;19909;-70
2023/03/27 07:16:33;;;;;;;;;;;31.30;99.90;;;;;;5014460;28;19921;-69
2023/03/27 07:19:00;;;;;;;;;;;31.10;99.90;;;;;;5014460;28;20029;-70
2023/03/27 07:21:26;;;;;;;;;;;31.30;99.90;;;;;;5014873;28;20357;-71
2023/03/27 07:23:52;;;;;;;;;;;32.10;99.90;;;;;;5014102;28;19909;-69
2023/03/27 07:26:18;;;;;;;;;;;32.20;99.90;;;;;;5014397;28;19909;-70
2023/03/27 07:28:45;;;;;;;;;;;32.20;99.90;;;;;;4996492;28;20001;-70
2023/03/27 07:31:12;;;;;;;;;;;31.80;99.90;;;;;;5013970;28;19917;-71
2023/03/27 07:33:38;;;;;;;;;;;30.00;99.90;;;;;;5014238;28;19959;-71
2023/03/27 07:36:05;;;;;;;;;;;29.50;99.90;;;;;;5014484;28;19941;-71
2023/03/27 07:38:32;;;;;;;;;;;28.70;99.90;;;;;;5014232;28;19936;-71
2023/03/27 07:41:05;;;;;;;;;;;28.40;99.90;;;;;;5013883;28;19962;-71
2023/03/27 07:43:35;;;;;;;;;;;27.90;99.90;;;;;;5014348;28;19909;-71
2023/03/27 07:46:18;;;;;;;;;;;26.50;99.90;;;;;;5012228;28;19905;-70
2023/03/27 07:48:46;;;;;;;;;;;25.50;99.90;;;;;;5013990;28;20353;-71
2023/03/27 07:51:12;;;;;;;;;;;25.40;99.90;;;;;;5013727;28;20000;-70
2023/03/27 07:53:40;;;;;;;;;;;25.20;99.90;;;;;;5013497;28;19932;-70
2023/03/27 07:56:08;;;;;;;;;;;24.90;99.90;;;;;;5013457;28;20270;-66
2023/03/27 07:58:39;;;;;;;;;;;24.60;99.90;;;;;;5013649;28;19914;-69
2023/03/27 08:01:05;;;;;;;;;;;24.50;99.90;;;;;;5012680;28;20066;-71
2023/03/27 08:03:30;;;;;;;;;;;24.30;99.90;;;;;;5013050;28;20025;-71
2023/03/27 08:05:58;;;;;;;;;;;24.40;99.90;;;;;;5012436;28;19912;-70
2023/03/27 08:08:24;;;;;;;;;;;23.70;99.90;;;;;;5013253;28;19910;-70
2023/03/27 08:10:53;;;;;;;;;;;24.10;99.90;;;;;;5013258;28;19906;-71
2023/03/27 08:13:19;;;;;;;;;;;24.40;99.90;;;;;;5013149;28;19905;-70
2023/03/27 08:15:46;;;;;;;;;;;23.50;99.90;;;;;;5012906;28;19959;-71
2023/03/27 08:18:12;;;;;;;;;;;23.40;99.90;;;;;;5012505;28;20308;-71
2023/03/27 08:20:38;;;;;;;;;;;23.10;99.90;;;;;;5013499;28;20384;-71
2023/03/27 08:23:04;;;;;;;;;;;23.50;99.90;;;;;;5013097;28;20057;-72
2023/03/27 08:25:33;;;;;;;;;;;23.90;99.90;;;;;;5013159;28;19905;-70
2023/03/27 08:28:00;;;;;;;;;;;24.20;99.90;;;;;;5013802;28;20210;-68
2023/03/27 08:30:27;;;;;;;;;;;23.90;99.90;;;;;;5021206;28;19909;-71
2023/03/27 08:32:58;;;;;;;;;;;23.40;99.90;;;;;;5027222;28;20352;-70
2023/03/27 08:35:24;;;;;;;;;;;23.20;99.90;;;;;;5018908;28;19916;-67
2023/03/27 08:37:53;;;;;;;;;;;22.90;99.90;;;;;;5013069;28;19905;-69
2023/03/27 08:40:24;;;;;;;;;;;23.10;99.90;;;;;;5012988;28;19957;-69
2023/03/27 08:42:52;;;;;;;;;;;23.10;99.90;;;;;;5012530;28;20316;-69
2023/03/27 08:45:19;;;;;;;;;;;23.30;99.90;;;;;;5012558;28;19909;-70
2023/03/27 08:47:49;;;;;;;;;;;23.40;99.90;;;;;;5011357;28;19905;-71
2023/03/27 08:50:32;;;;;;;;;;;22.90;99.90;;;;;;5012352;28;19924;-70
2023/03/27 08:52:59;;;;;;;;;;;23.10;99.90;;;;;;5012294;28;19906;-71
2023/03/27 08:55:35;;;;;;;;;;;23.00;99.90;;;;;;5012203;28;20000;-70
2023/03/27 08:58:00;;;;;;;;;;;22.40;99.90;;;;;;5012502;28;20233;-72
2023/03/27 09:00:30;;;;;;;;;;;22.70;99.90;;;;;;4998264;28;20016;-71
2023/03/27 09:03:11;;;;;;;;;;;22.90;99.90;;;;;;4992577;28;19909;-69
2023/03/27 09:05:48;;;;;;;;;;;22.70;99.90;;;;;;4992834;28;20365;-69
2023/03/27 09:08:33;;;;;;;;;;;22.60;99.90;;;;;;4992432;28;19905;-71
2023/03/27 09:11:08;;;;;;;;;;;22.80;99.90;;;;;;4992734;28;20005;-71
2023/03/27 09:13:46;;;;;;;;;;;22.90;99.90;;;;;;4993205;28;19905;-70
2023/03/27 09:16:14;;;;;;;;;;;22.90;99.90;;;;;;4974650;28;19910;-69
2023/03/27 09:18:59;;;;;;;;;;;22.40;99.90;;;;;;4992919;28;19924;-71
2023/03/27 09:21:37;;;;;;;;;;;22.30;99.90;;;;;;4992970;28;19909;-73
2023/03/27 09:24:05;;;;;;;;;;;22.10;99.90;;;;;;4993040;28;19905;-70
2023/03/27 09:26:34;;;;;;;;;;;22.00;99.90;;;;;;4992101;28;19910;-70
2023/03/27 09:29:10;;;;;;;;;;;21.80;99.90;;;;;;4994527;28;20010;-70
2023/03/27 09:31:42;;;;;;;;;;;21.90;99.90;;;;;;4994365;28;19912;-72
2023/03/27 09:34:11;;;;;;;;;;;21.90;99.90;;;;;;5011910;28;20241;-70
2023/03/27 09:36:37;;;;;;;;;;;22.00;99.90;;;;;;5012034;28;19941;-70
2023/03/27 09:39:07;;;;;;;;;;;21.50;99.90;;;;;;4993989;28;19963;-70
2023/03/27 09:41:37;;;;;;;;;;;21.30;99.90;;;;;;5011806;28;19945;-71
2023/03/27 09:44:10;;;;;;;;;;;21.60;99.90;;;;;;5012392;28;20012;-72
2023/03/27 09:46:40;;;;;;;;;;;21.60;99.90;;;;;;5011662;28;20274;-71
2023/03/27 09:49:15;;;;;;;;;;;21.50;99.90;;;;;;5011784;28;19906;-71
2023/03/27 09:51:51;;;;;;;;;;;21.30;99.90;;;;;;5010471;28;19944;-71
2023/03/27 09:54:18;;;;;;;;;;;21.40;99.90;;;;;;5011207;28;19952;-70
2023/03/27 09:56:46;;;;;;;;;;;21.60;99.90;;;;;;5011324;28;19906;-69
2023/03/27 09:59:24;;;;;;;;;;;21.40;99.90;;;;;;5011917;28;20019;-70
2023/03/27 10:01:51;;;;;;;;;;;21.10;99.90;;;;;;4993581;28;20016;-71
2023/03/27 10:04:20;;;;;;;;;;;21.00;99.90;;;;;;5011525;28;19952;-71
2023/03/27 10:06:50;;;;;;;;;;;21.20;99.90;;;;;;5011584;28;19905;-70
2023/03/27 10:09:19;;;;;;;;;;;21.60;99.90;;;;;;5015966;28;19905;-69
2023/03/27 10:11:46;;;;;;;;;;;21.70;99.90;;;;;;5015590;28;19905;-69
2023/03/27 10:14:16;;;;;;;;;;;21.90;99.90;;;;;;5015336;28;20247;-69
2023/03/27 10:16:44;;;;;;;;;;;22.00;99.90;;;;;;5015473;28;19909;-69
2023/03/27 10:19:19;;;;;;;;;;;21.90;99.90;;;;;;5014621;28;19968;-69
2023/03/27 10:21:45;;;;;;;;;;;22.00;99.90;;;;;;5015599;28;19990;-70
2023/03/27 10:24:26;;;;;;;;;;;21.80;99.90;;;;;;5015263;28;20271;-72
2023/03/27 10:26:52;;;;;;;;;;;21.50;99.90;;;;;;5015535;28;20059;-68
2023/03/27 10:29:21;;;;;;;;;;;21.40;99.90;;;;;;5015101;28;19909;-68
2023/03/27 10:31:49;;;;;;;;;;;21.20;99.90;;;;;;5014524;28;19972;-69
2023/03/27 10:34:35;;;;;;;;;;;21.70;99.90;;;;;;5015018;28;19929;-69
2023/03/27 10:37:03;;;;;;;;;;;22.10;99.90;;;;;;5015241;28;19921;-68
2023/03/27 10:39:32;;;;;;;;;;;21.80;99.90;;;;;;5014937;28;19913;-69
2023/03/27 10:42:06;;;;;;;;;;;21.70;99.90;;;;;;5014891;28;19905;-67
2023/03/27 10:44:32;;;;;;;;;;;21.60;99.90;;;;;;5015041;28;19947;-68
2023/03/27 10:46:58;;;;;;;;;;;21.50;99.90;;;;;;5014580;28;19921;-68
2023/03/27 10:49:43;;;;;;;;;;;21.60;99.90;;;;;;5014491;28;19912;-69
2023/03/27 10:52:09;;;;;;;;;;;21.80;99.90;;;;;;5014211;28;20387;-69
2023/03/27 10:54:45;;;;;;;;;;;21.80;99.90;;;;;;5013350;28;20009;-69
2023/03/27 10:57:22;;;;;;;;;;;21.70;99.90;;;;;;4996794;28;19909;-66
2023/03/27 11:00:12;;;;;;;;;;;21.80;99.90;;;;;;5013837;28;19933;-68
2023/03/27 11:02:40;;;;;;;;;;;21.50;99.90;;;;;;4977125;28;19909;-68
2023/03/27 11:05:11;;;;;;;;;;;21.50;99.90;;;;;;4996185;28;19905;-69
2023/03/27 11:07:39;;;;;;;;;;;21.20;99.90;;;;;;5014098;28;19905;-70
2023/03/27 11:10:15;;;;;;;;;;;21.00;99.90;;;;;;5014201;28;19912;-68
2023/03/27 11:12:43;;;;;;;;;;;20.80;99.90;;;;;;5013981;28;19964;-68
2023/03/27 11:15:16;;;;;;;;;;;20.90;99.90;;;;;;5014615;28;19973;-68
2023/03/27 11:17:47;;;;;;;;;;;20.90;99.90;;;;;;5014749;28;19960;-68
2023/03/27 11:20:21;;;;;;;;;;;20.90;99.90;;;;;;5014156;28;20020;-68
2023/03/27 11:22:51;;;;;;;;;;;21.10;99.90;;;;;;5014841;28;19957;-68
2023/03/27 11:25:35;;;;;;;;;;;21.50;99.90;;;;;;4996738;28;19967;-68
2023/03/27 11:28:18;;;;;;;;;;;21.60;99.90;;;;;;5015015;28;20098;-69
2023/03/27 11:30:51;;;;;;;;;;;21.40;99.90;;;;;;4996664;28;20377;-69
2023/03/27 11:33:24;;;;;;;;;;;21.40;99.90;;;;;;5014477;28;20305;-68
2023/03/27 11:36:04;;;;;;;;;;;21.10;99.90;;;;;;5014849;28;19999;-69
2023/03/27 11:38:35;;;;;;;;;;;21.30;99.90;;;;;;5013966;28;19935;-67
2023/03/27 11:41:00;;;;;;;;;;;21.10;99.90;;;;;;5014216;28;19913;-67
2023/03/27 11:43:26;;;;;;;;;;;21.10;99.90;;;;;;5014366;28;19924;-69
2023/03/27 11:46:08;;;;;;;;;;;20.80;99.90;;;;;;5028797;28;19911;-68
2023/03/27 11:48:46;;;;;;;;;;;20.70;99.90;;;;;;5014344;28;19905;-68
2023/03/27 11:51:19;;;;;;;;;;;21.10;99.90;;;;;;5013631;28;19916;-68
2023/03/27 11:53:53;;;;;;;;;;;20.90;99.90;;;;;;5013596;28;19911;-66
2023/03/27 11:56:25;;;;;;;;;;;21.20;99.90;;;;;;5013699;28;20004;-69
2023/03/27 11:59:04;;;;;;;;;;;21.00;99.90;;;;;;5013793;28;19913;-69
2023/03/27 12:01:37;;;;;;;;;;;20.80;99.90;;;;;;5013397;28;19925;-64
2023/03/27 12:04:21;;;;;;;;;;;20.70;99.90;;;;;;5011558;28;20008;-68
2023/03/27 12:06:53;;;;;;;;;;;20.60;99.90;;;;;;5011732;28;19912;-66
2023/03/27 12:09:18;;;;;;;;;;;20.50;99.90;;;;;;5013832;28;20365;-64
2023/03/27 12:11:49;;;;;;;;;;;20.40;99.90;;;;;;5014223;28;19920;-67
2023/03/27 12:14:33;;;;;;;;;;;20.50;99.90;;;;;;5014703;28;19905;-67
2023/03/27 12:17:02;;;;;;;;;;;20.70;99.90;;;;;;5014074;28;19933;-67
2023/03/27 12:19:35;;;;;;;;;;;20.60;99.90;;;;;;4996696;28;20361;-68
2023/03/27 12:22:03;;;;;;;;;;;20.70;99.90;;;;;;5014666;28;19996;-68
2023/03/27 12:24:46;;;;;;;;;;;20.40;99.90;;;;;;5014577;28;19992;-67
2023/03/27 12:27:12;;;;;;;;;;;20.40;99.90;;;;;;5014830;28;19932;-66
2023/03/27 12:29:56;;;;;;;;;;;20.80;99.90;;;;;;5014373;28;20361;-68
2023/03/27 12:32:41;;;;;;;;;;;20.90;99.90;;;;;;5014118;28;19914;-67
2023/03/27 12:35:11;;;;;;;;;;;20.80;99.90;;;;;;5014431;28;19952;-68
2023/03/27 12:37:46;;;;;;;;;;;20.50;99.90;;;;;;5014357;28;19905;-68
2023/03/27 12:40:24;;;;;;;;;;;20.70;99.90;;;;;;5014466;28;19918;-68
2023/03/27 12:42:54;;;;;;;;;;;20.60;99.90;;;;;;5014286;28;19935;-67
2023/03/27 12:45:22;;;;;;;;;;;20.70;99.90;;;;;;5013925;28;19905;-68
2023/03/27 12:48:05;;;;;;;;;;;20.50;99.90;;;;;;5013544;28;19912;-67
2023/03/27 12:50:33;;;;;;;;;;;20.50;99.90;;;;;;5013537;28;20000;-67
2023/03/27 12:53:05;;;;;;;;;;;20.50;99.90;;;;;;5013345;28;20065;-67
2023/03/27 12:55:36;;;;;;;;;;;20.50;99.90;;;;;;5013357;28;19909;-67
2023/03/27 12:58:03;;;;;;;;;;;20.70;99.90;;;;;;5013823;28;19909;-68
2023/03/27 13:00:34;;;;;;;;;;;20.40;99.90;;;;;;5013156;28;19925;-68
2023/03/27 13:03:12;;;;;;;;;;;20.40;99.90;;;;;;5013826;28;19916;-68
2023/03/27 13:05:57;;;;;;;;;;;20.70;99.90;;;;;;5013735;28;20357;-68
2023/03/27 13:08:40;;;;;;;;;;;20.70;99.90;;;;;;5014080;28;19905;-66
2023/03/27 13:11:30;;;;;;;;;;;20.50;99.90;;;;;;5013673;28;19905;-67
2023/03/27 13:13:56;;;;;;;;;;;20.30;99.90;;;;;;5013792;28;20249;-68
2023/03/27 13:16:38;;;;;;;;;;;20.40;99.90;;;;;;5013178;28;19941;-67
2023/03/27 13:19:04;;;;;;;;;;;20.50;99.90;;;;;;5013922;28;20350;-69
2023/03/27 13:21:49;;;;;;;;;;;20.50;99.90;;;;;;5012517;28;19913;-69
2023/03/27 13:24:39;;;;;;;;;;;20.70;99.90;;;;;;4996559;28;20009;-69
2023/03/27 13:27:16;;;;;;;;;;;20.40;99.90;;;;;;5013375;28;19905;-67
2023/03/27 13:29:50;;;;;;;;;;;20.30;99.90;;;;;;5013489;28;20373;-69
2023/03/27 13:32:33;;;;;;;;;;;20.50;99.90;;;;;;4980003;28;19944;-68
2023/03/27 13:35:08;;;;;;;;;;;20.40;99.90;;;;;;5013753;28;19905;-68
2023/03/27 13:37:36;;;;;;;;;;;20.20;99.90;;;;;;5013181;28;19905;-64
2023/03/27 13:40:25;;;;;;;;;;;19.90;99.90;;;;;;5013161;28;19975;-69
2023/03/27 13:43:14;;;;;;;;;;;19.90;99.90;;;;;;5014315;28;20254;-68
2023/03/27 13:45:51;;;;;;;;;;;20.00;99.90;;;;;;5006859;28;19936;-68
2023/03/27 13:48:29;;;;;;;;;;;20.10;99.90;;;;;;5017450;28;20357;-70
2023/03/27 13:51:04;;;;;;;;;;;20.00;99.90;;;;;;5017224;28;19963;-69
2023/03/27 13:53:45;;;;;;;;;;;19.80;99.90;;;;;;5017554;28;19905;-69
2023/03/27 13:56:29;;;;;;;;;;;19.50;99.90;;;;;;5016993;28;20373;-67
2023/03/27 13:58:55;;;;;;;;;;;19.60;99.90;;;;;;5017035;28;20246;-68
2023/03/27 14:01:39;;;;;;;;;;;19.40;99.90;;;;;;5016637;28;19918;-67
2023/03/27 14:04:17;;;;;;;;;;;19.40;99.90;;;;;;5017172;28;20276;-67
2023/03/27 14:07:04;;;;;;;;;;;19.40;99.90;;;;;;5016615;28;19956;-66
2023/03/27 14:09:48;;;;;;;;;;;19.30;99.90;;;;;;5016955;28;19944;-64
2023/03/27 14:12:17;;;;;;;;;;;19.10;99.90;;;;;;5016458;28;19913;-68
2023/03/27 14:15:02;;;;;;;;;;;19.10;99.90;;;;;;5016896;28;19948;-69
2023/03/27 14:17:31;;;;;;;;;;;19.20;99.90;;;;;;4998749;28;19905;-70
2023/03/27 14:20:12;;;;;;;;;;;19.00;99.90;;;;;;5016827;28;20372;-68
2023/03/27 14:22:47;;;;;;;;;;;19.10;99.90;;;;;;5016272;28;19953;-66
2023/03/27 14:25:18;;;;;;;;;;;19.10;99.90;;;;;;5016243;28;19916;-67
2023/03/27 14:27:48;;;;;;;;;;;19.10;99.90;;;;;;5016397;28;19951;-68
2023/03/27 14:30:19;;;;;;;;;;;19.20;99.90;;;;;;5016072;28;20404;-68
2023/03/27 14:32:47;;;;;;;;;;;19.10;99.90;;;;;;5016051;28;19925;-67
2023/03/27 14:35:22;;;;;;;;;;;18.90;99.90;;;;;;5016563;28;19906;-68
2023/03/27 14:37:54;;;;;;;;;;;19.00;99.90;;;;;;5015840;28;19913;-68